createdAt,value
2022-09-28T00:01:24.281Z,9.48
2022-09-28T00:04:09.462Z,9.39
2022-09-28T00:06:54.251Z,9.39
2022-09-28T00:09:39.034Z,9.35
2022-09-28T00:12:23.938Z,9.35
2022-09-28T00:15:08.682Z,9.38
2022-09-28T00:17:53.531Z,9.35
2022-09-28T00:20:38.247Z,9.36
2022-09-28T00:23:22.891Z,9.41
2022-09-28T00:26:07.650Z,9.46
2022-09-28T00:28:52.413Z,9.49
2022-09-28T00:31:37.386Z,9.52
2022-09-28T00:34:22.372Z,9.57
2022-09-28T00:37:07.146Z,9.56
2022-09-28T00:39:51.809Z,9.58
2022-09-28T00:42:36.624Z,9.60
2022-09-28T00:45:21.410Z,9.60
2022-09-28T00:48:06.315Z,9.63
2022-09-28T00:50:50.940Z,9.67
2022-09-28T00:53:35.700Z,9.68
2022-09-28T00:56:20.459Z,9.75
2022-09-28T00:59:05.299Z,9.77
2022-09-28T01:01:50.117Z,9.79
2022-09-28T01:04:34.839Z,9.85
2022-09-28T01:07:19.746Z,9.88
2022-09-28T01:10:04.582Z,9.90
2022-09-28T01:12:49.526Z,9.88
2022-09-28T01:15:34.150Z,9.93
2022-09-28T01:18:18.878Z,9.97
2022-09-28T01:21:03.519Z,9.97
2022-09-28T01:23:48.358Z,10.00
2022-09-28T01:26:33.035Z,10.03
2022-09-28T01:29:17.966Z,10.00
2022-09-28T01:32:03.208Z,10.03
2022-09-28T01:34:48.085Z,10.02
2022-09-28T01:37:33.016Z,10.00
2022-09-28T01:40:17.900Z,10.01
2022-09-28T01:43:02.735Z,10.01
2022-09-28T01:45:47.443Z,9.93
2022-09-28T01:48:32.128Z,9.94
2022-09-28T01:51:16.806Z,9.97
2022-09-28T01:54:01.695Z,9.94
2022-09-28T01:56:46.422Z,9.88
2022-09-28T01:59:31.099Z,9.95
2022-09-28T02:02:16.011Z,9.94
2022-09-28T02:05:00.599Z,10.03
2022-09-28T02:07:45.538Z,10.05
2022-09-28T02:10:30.101Z,10.09
2022-09-28T02:13:14.940Z,10.08
2022-09-28T02:15:59.765Z,10.09
2022-09-28T02:18:44.559Z,10.05
2022-09-28T02:21:29.453Z,10.02
2022-09-28T02:24:17.161Z,10.04
2022-09-28T02:27:04.236Z,10.02
2022-09-28T02:29:48.995Z,10.03
2022-09-28T02:32:33.902Z,10.06
2022-09-28T02:35:18.477Z,10.03
2022-09-28T02:38:03.239Z,10.04
2022-09-28T02:40:48.012Z,9.93
2022-09-28T02:43:32.673Z,9.92
2022-09-28T02:46:17.500Z,9.91
2022-09-28T02:49:20.448Z,9.96
2022-09-28T02:52:06.597Z,9.88
2022-09-28T02:54:51.211Z,9.92
2022-09-28T02:57:35.990Z,9.83
2022-09-28T03:00:20.811Z,9.77
2022-09-28T03:03:05.532Z,9.74
2022-09-28T03:05:50.335Z,9.69
2022-09-28T03:08:35.061Z,9.67
2022-09-28T03:11:19.875Z,9.67
2022-09-28T03:14:04.546Z,9.68
2022-09-28T03:16:49.406Z,9.61
2022-09-28T03:19:34.093Z,9.57
2022-09-28T03:22:19.046Z,9.50
2022-09-28T03:25:03.762Z,9.56
2022-09-28T03:27:48.586Z,9.52
2022-09-28T03:30:33.347Z,9.48
2022-09-28T03:33:17.996Z,9.46
2022-09-28T03:36:02.809Z,9.44
2022-09-28T03:38:47.467Z,9.40
2022-09-28T03:41:32.377Z,9.40
2022-09-28T03:44:17.172Z,9.32
2022-09-28T03:47:02.245Z,9.27
2022-09-28T03:49:46.942Z,9.23
2022-09-28T03:52:31.942Z,9.17
2022-09-28T03:55:16.710Z,9.20
2022-09-28T03:58:01.490Z,9.21
2022-09-28T04:00:46.194Z,9.25
2022-09-28T04:03:31.214Z,9.23
2022-09-28T04:06:16.105Z,9.30
2022-09-28T04:09:01.947Z,9.24
2022-09-28T04:12:02.768Z,9.31
2022-09-28T04:14:48.675Z,9.39
2022-09-28T04:17:37.767Z,9.29
2022-09-28T04:20:25.079Z,9.38
2022-09-28T04:23:10.010Z,9.41
2022-09-28T04:25:54.615Z,9.36
2022-09-28T04:28:39.401Z,9.32
2022-09-28T04:31:24.233Z,9.18
2022-09-28T04:34:09.542Z,8.86
2022-09-28T04:36:54.221Z,8.79
2022-09-28T04:39:39.159Z,8.81
2022-09-28T04:42:23.958Z,8.87
2022-09-28T04:45:08.816Z,9.00
2022-09-28T04:47:53.683Z,9.00
2022-09-28T04:50:38.394Z,9.15
2022-09-28T04:53:23.330Z,9.15
2022-09-28T04:56:08.164Z,9.20
2022-09-28T04:58:53.154Z,9.18
2022-09-28T05:01:37.976Z,9.13
2022-09-28T05:04:25.953Z,9.08
2022-09-28T05:07:11.261Z,9.10
2022-09-28T05:09:56.105Z,9.15
2022-09-28T05:12:40.989Z,9.05
2022-09-28T05:15:25.769Z,8.91
2022-09-28T05:18:10.465Z,8.72
2022-09-28T05:20:55.263Z,8.61
2022-09-28T05:23:40.160Z,8.70
2022-09-28T05:26:25.046Z,8.75
2022-09-28T05:29:10.055Z,8.74
2022-09-28T05:31:55.566Z,8.78
2022-09-28T05:34:40.279Z,8.81
2022-09-28T05:37:25.076Z,8.92
2022-09-28T05:40:09.667Z,8.97
2022-09-28T05:42:54.491Z,8.89
2022-09-28T05:45:39.309Z,8.37
2022-09-28T05:48:24.150Z,8.14
2022-09-28T05:51:08.893Z,8.10
2022-09-28T05:53:53.784Z,8.30
2022-09-28T05:56:38.622Z,8.46
2022-09-28T05:59:23.296Z,8.63
2022-09-28T06:02:08.197Z,8.71
2022-09-28T06:04:52.894Z,8.69
2022-09-28T06:07:37.836Z,8.84
2022-09-28T06:10:22.552Z,8.91
2022-09-28T06:13:07.354Z,8.93
2022-09-28T06:15:52.124Z,8.94
2022-09-28T06:18:36.934Z,8.94
2022-09-28T06:21:21.655Z,8.84
2022-09-28T06:24:06.509Z,8.90
2022-09-28T06:26:51.219Z,8.92
2022-09-28T06:29:35.918Z,9.00
2022-09-28T06:32:20.725Z,8.99
2022-09-28T06:35:05.441Z,9.03
2022-09-28T06:37:50.276Z,9.02
2022-09-28T06:40:35.015Z,9.05
2022-09-28T06:43:19.857Z,9.09
2022-09-28T06:46:04.560Z,9.11
2022-09-28T06:48:49.320Z,9.11
2022-09-28T06:51:34.068Z,9.06
2022-09-28T06:54:19.051Z,8.99
2022-09-28T06:57:04.347Z,9.08
2022-09-28T06:59:49.144Z,9.10
2022-09-28T07:02:34.038Z,9.15
2022-09-28T07:05:18.628Z,9.21
2022-09-28T07:08:03.362Z,9.29
2022-09-28T07:10:48.016Z,9.37
2022-09-28T07:17:04.792Z,9.50
2022-09-28T07:19:42.686Z,9.55
2022-09-28T07:22:40.962Z,9.55
2022-09-28T07:25:27.481Z,9.52
2022-09-28T07:28:12.174Z,9.62
2022-09-28T07:30:57.014Z,9.66
2022-09-28T07:33:42.047Z,9.82
2022-09-28T07:36:26.837Z,9.95
2022-09-28T07:39:11.519Z,10.11
2022-09-28T07:41:59.730Z,10.31
2022-09-28T07:44:47.331Z,10.55
2022-09-28T07:47:35.020Z,10.66
2022-09-28T07:50:20.179Z,10.69
2022-09-28T07:53:05.039Z,10.64
2022-09-28T07:55:49.652Z,10.65
2022-09-28T07:58:34.469Z,10.80
2022-09-28T08:01:19.329Z,10.87
2022-09-28T08:04:04.457Z,10.80
2022-09-28T08:06:49.210Z,10.63
2022-09-28T08:09:34.065Z,10.23
2022-09-28T08:12:18.893Z,10.08
2022-09-28T08:15:03.723Z,10.09
2022-09-28T08:17:48.685Z,10.18
2022-09-28T08:20:33.516Z,10.13
2022-09-28T08:23:18.447Z,10.20
2022-09-28T08:26:03.244Z,10.15
2022-09-28T08:28:48.076Z,10.07
2022-09-28T08:31:32.662Z,10.06
2022-09-28T08:34:17.678Z,10.09
2022-09-28T08:37:02.731Z,10.26
2022-09-28T08:39:47.375Z,10.35
2022-09-28T08:42:32.308Z,10.44
2022-09-28T08:45:17.099Z,10.46
2022-09-28T08:48:01.867Z,10.55
2022-09-28T08:50:46.578Z,10.67
2022-09-28T08:53:31.322Z,10.82
2022-09-28T08:56:16.094Z,10.96
2022-09-28T08:59:00.966Z,11.00
2022-09-28T09:01:45.603Z,11.20
2022-09-28T09:04:30.934Z,11.25
2022-09-28T09:07:15.646Z,11.32
2022-09-28T09:10:00.384Z,11.29
2022-09-28T09:12:45.197Z,11.20
2022-09-28T09:15:29.849Z,11.23
2022-09-28T09:18:16.701Z,11.29
2022-09-28T09:21:03.901Z,11.23
2022-09-28T09:23:48.485Z,11.05
2022-09-28T09:26:33.366Z,10.84
2022-09-28T09:29:18.173Z,10.66
2022-09-28T09:32:02.860Z,10.69
2022-09-28T09:34:47.597Z,10.80
2022-09-28T09:37:32.367Z,10.94
2022-09-28T09:40:17.075Z,10.85
2022-09-28T09:43:01.837Z,10.80
2022-09-28T09:45:46.451Z,10.81
2022-09-28T09:48:31.049Z,10.93
2022-09-28T09:51:15.797Z,11.10
2022-09-28T09:54:00.552Z,11.20
2022-09-28T09:56:45.461Z,11.33
2022-09-28T09:59:30.249Z,11.40
2022-09-28T10:02:15.112Z,11.54
2022-09-28T10:05:00.188Z,11.52
2022-09-28T10:07:44.920Z,11.55
2022-09-28T10:10:29.944Z,11.59
2022-09-28T10:13:15.200Z,11.66
2022-09-28T10:16:00.049Z,11.77
2022-09-28T10:18:44.665Z,11.78
2022-09-28T10:21:29.381Z,11.63
2022-09-28T10:37:43.409Z,11.39
2022-09-28T10:40:28.441Z,11.50
2022-09-28T10:43:13.121Z,11.67
2022-09-28T10:45:57.987Z,11.81
2022-09-28T10:48:42.726Z,11.93
2022-09-28T10:51:27.555Z,11.94
2022-09-28T10:54:12.341Z,12.04
2022-09-28T10:56:57.102Z,12.14
2022-09-28T10:59:41.756Z,12.11
2022-09-28T11:02:26.670Z,12.03
2022-09-28T11:05:11.841Z,12.60
2022-09-28T11:07:56.728Z,13.14
2022-09-28T11:10:41.486Z,13.28
2022-09-28T11:13:26.281Z,13.41
2022-09-28T11:16:10.930Z,13.55
2022-09-28T11:18:55.599Z,13.58
2022-09-28T11:21:40.491Z,13.58
2022-09-28T11:24:25.597Z,13.78
2022-09-28T11:27:10.411Z,13.59
2022-09-28T11:29:55.134Z,13.39
2022-09-28T11:32:39.888Z,13.56
2022-09-28T11:35:24.467Z,13.85
2022-09-28T11:38:09.256Z,13.98
2022-09-28T11:40:54.021Z,13.99
2022-09-28T11:43:38.662Z,14.16
2022-09-28T11:46:23.542Z,14.34
2022-09-28T11:49:08.233Z,14.55
2022-09-28T11:51:52.949Z,13.97
2022-09-28T11:54:37.680Z,14.26
2022-09-28T11:57:22.544Z,14.50
2022-09-28T12:00:07.272Z,14.67
2022-09-28T12:02:52.121Z,14.81
2022-09-28T12:05:37.154Z,14.97
2022-09-28T12:08:21.846Z,15.05
2022-09-28T12:11:06.589Z,15.04
2022-09-28T12:13:51.269Z,14.64
2022-09-28T12:17:04.203Z,14.09
2022-09-28T12:19:40.827Z,13.70
2022-09-28T12:22:25.503Z,13.77
2022-09-28T12:25:10.235Z,13.49
2022-09-28T12:27:55.009Z,13.53
2022-09-28T12:30:40.249Z,13.49
2022-09-28T12:33:25.071Z,13.37
2022-09-28T12:36:09.809Z,13.55
2022-09-28T12:39:17.585Z,13.46
2022-09-28T12:41:59.499Z,13.63
2022-09-28T12:44:44.330Z,13.60
2022-09-28T12:47:29.032Z,13.66
2022-09-28T12:50:38.210Z,13.62
2022-09-28T12:53:19.118Z,13.66
2022-09-28T12:56:03.820Z,13.57
2022-09-28T12:58:48.946Z,13.56
2022-09-28T13:01:34.045Z,13.67
2022-09-28T13:04:18.781Z,13.82
2022-09-28T13:07:03.560Z,13.92
2022-09-28T13:09:48.412Z,14.01
2022-09-28T13:12:33.117Z,14.06
2022-09-28T13:15:17.909Z,14.24
2022-09-28T13:18:02.691Z,14.22
2022-09-28T13:20:47.418Z,14.18
2022-09-28T13:23:32.226Z,14.16
2022-09-28T13:26:16.962Z,14.13
2022-09-28T13:29:01.690Z,14.04
2022-09-28T13:31:46.330Z,13.98
2022-09-28T13:34:31.233Z,13.82
2022-09-28T13:37:15.917Z,13.63
2022-09-28T13:40:00.648Z,13.52
2022-09-28T13:42:45.227Z,13.02
2022-09-28T13:45:30.098Z,12.65
2022-09-28T13:48:14.831Z,12.39
2022-09-28T13:50:59.654Z,11.89
2022-09-28T13:53:44.473Z,11.90
2022-09-28T13:56:29.251Z,12.02
2022-09-28T13:59:14.062Z,12.30
2022-09-28T14:02:02.887Z,12.47
2022-09-28T14:04:50.459Z,12.70
2022-09-28T14:07:35.180Z,12.89
2022-09-28T14:10:19.915Z,13.02
2022-09-28T14:13:06.637Z,13.10
2022-09-28T14:15:53.708Z,13.28
2022-09-28T14:18:38.840Z,13.38
2022-09-28T14:21:23.732Z,13.55
2022-09-28T14:24:08.561Z,13.74
2022-09-28T14:26:53.166Z,13.82
2022-09-28T14:29:37.980Z,13.84
2022-09-28T14:32:22.663Z,13.92
2022-09-28T14:35:07.590Z,14.04
2022-09-28T14:37:52.424Z,14.13
2022-09-28T14:40:37.319Z,14.18
2022-09-28T14:43:22.591Z,14.18
2022-09-28T14:46:07.357Z,14.18
2022-09-28T14:48:52.122Z,14.11
2022-09-28T14:51:36.890Z,14.00
2022-09-28T14:54:21.575Z,13.80
2022-09-28T14:57:06.422Z,13.43
2022-09-28T14:59:51.127Z,13.21
2022-09-28T15:02:35.928Z,13.06
2022-09-28T15:05:20.775Z,12.81
2022-09-28T15:08:05.871Z,12.48
2022-09-28T15:10:50.649Z,12.14
2022-09-28T15:13:35.383Z,12.01
2022-09-28T15:16:20.153Z,11.99
2022-09-28T15:19:04.925Z,11.95
2022-09-28T15:21:49.637Z,11.94
2022-09-28T15:24:34.417Z,11.97
2022-09-28T15:27:19.284Z,12.03
2022-09-28T15:30:04.016Z,11.87
2022-09-28T15:32:48.738Z,11.73
2022-09-28T15:35:33.441Z,11.69
2022-09-28T15:38:18.200Z,11.53
2022-09-28T15:41:02.984Z,11.40
2022-09-28T15:43:48.116Z,11.28
2022-09-28T15:46:32.842Z,11.16
2022-09-28T15:49:17.629Z,11.19
2022-09-28T15:52:02.225Z,11.27
2022-09-28T15:54:46.917Z,11.33
2022-09-28T15:57:31.723Z,11.41
2022-09-28T16:00:16.400Z,11.36
2022-09-28T16:03:01.288Z,11.38
2022-09-28T16:05:46.304Z,11.42
2022-09-28T16:08:31.110Z,11.33
2022-09-28T16:11:16.035Z,11.17
2022-09-28T16:14:00.714Z,11.18
2022-09-28T16:16:46.686Z,10.98
2022-09-28T16:19:31.693Z,10.93
2022-09-28T16:22:16.415Z,10.84
2022-09-28T16:25:01.129Z,10.88
2022-09-28T16:27:46.071Z,10.78
2022-09-28T16:30:30.689Z,10.82
2022-09-28T16:33:15.481Z,10.99
2022-09-28T16:36:00.213Z,11.11
2022-09-28T16:38:45.008Z,11.23
2022-09-28T16:41:29.756Z,11.28
2022-09-28T16:44:14.422Z,11.31
2022-09-28T16:46:59.227Z,11.41
2022-09-28T16:49:43.979Z,11.42
2022-09-28T16:52:28.689Z,11.30
2022-09-28T16:55:35.816Z,11.08
2022-09-28T16:58:18.228Z,10.73
2022-09-28T17:01:03.101Z,10.61
2022-09-28T17:03:47.752Z,10.46
2022-09-28T17:06:32.498Z,10.30
2022-09-28T17:09:17.456Z,10.31
2022-09-28T17:12:02.628Z,10.41
2022-09-28T17:14:47.449Z,10.54
2022-09-28T17:17:32.035Z,10.59
2022-09-28T17:20:16.749Z,10.73
2022-09-28T17:23:01.402Z,10.85
2022-09-28T17:25:46.207Z,10.93
2022-09-28T17:28:30.879Z,10.96
2022-09-28T17:31:15.705Z,11.02
2022-09-28T17:34:00.350Z,10.93
2022-09-28T17:36:45.181Z,10.93
2022-09-28T17:39:29.992Z,10.94
2022-09-28T17:42:14.767Z,10.98
2022-09-28T17:44:59.462Z,11.03
2022-09-28T17:47:44.254Z,11.01
2022-09-28T17:50:28.992Z,11.01
2022-09-28T17:53:13.713Z,11.01
2022-09-28T17:55:58.675Z,11.04
2022-09-28T17:58:43.341Z,11.01
2022-09-28T18:01:28.258Z,11.02
2022-09-28T18:04:19.157Z,11.02
2022-09-28T18:07:13.092Z,11.02
2022-09-28T18:09:58.018Z,10.96
2022-09-28T18:12:42.721Z,10.92
2022-09-28T18:15:27.622Z,10.87
2022-09-28T18:18:12.285Z,10.90
2022-09-28T18:20:57.072Z,10.94
2022-09-28T18:23:41.708Z,10.93
2022-09-28T18:26:26.480Z,10.98
2022-09-28T18:29:11.217Z,10.96
2022-09-28T18:31:55.963Z,10.87
2022-09-28T18:34:40.887Z,10.84
2022-09-28T18:37:25.732Z,10.77
2022-09-28T18:40:10.496Z,10.63
2022-09-28T18:42:55.433Z,10.67
2022-09-28T18:45:40.761Z,10.70
2022-09-28T18:48:25.938Z,10.70
2022-09-28T18:51:10.841Z,10.69
2022-09-28T18:53:55.494Z,10.71
2022-09-28T18:56:40.281Z,10.68
2022-09-28T18:59:24.979Z,10.70
2022-09-28T19:02:09.972Z,10.74
2022-09-28T19:04:54.613Z,10.73
2022-09-28T19:07:39.344Z,10.77
2022-09-28T19:10:24.141Z,10.76
2022-09-28T19:13:08.898Z,10.77
2022-09-28T19:15:53.830Z,10.77
2022-09-28T19:18:38.459Z,10.74
2022-09-28T19:21:23.204Z,10.72
2022-09-28T19:24:07.949Z,10.74
2022-09-28T19:26:52.739Z,10.70
2022-09-28T19:29:37.428Z,10.68
2022-09-28T19:32:22.197Z,10.59
2022-09-28T19:35:06.944Z,10.57
2022-09-28T19:37:51.716Z,10.48
2022-09-28T19:40:36.582Z,10.51
2022-09-28T19:43:21.678Z,10.44
2022-09-28T19:46:06.634Z,10.42
2022-09-28T19:48:51.760Z,10.37
2022-09-28T19:51:40.919Z,10.32
2022-09-28T19:54:31.081Z,10.28
2022-09-28T19:57:19.254Z,10.28
2022-09-28T20:00:04.146Z,10.30
2022-09-28T20:02:49.396Z,10.29
2022-09-28T20:05:34.181Z,10.25
2022-09-28T20:08:18.991Z,10.21
2022-09-28T20:11:03.720Z,10.21
2022-09-28T20:13:48.489Z,10.14
2022-09-28T20:16:33.216Z,10.20
2022-09-28T20:19:18.047Z,10.19
2022-09-28T20:22:03.351Z,10.15
2022-09-28T20:24:48.300Z,10.19
2022-09-28T20:27:33.079Z,10.21
2022-09-28T20:30:17.765Z,10.23
2022-09-28T20:33:02.671Z,10.23
2022-09-28T20:35:47.467Z,10.27
2022-09-28T20:38:32.072Z,10.34
2022-09-28T20:41:16.997Z,10.32
2022-09-28T20:44:05.359Z,10.36
2022-09-28T20:46:51.225Z,10.30
2022-09-28T20:49:35.962Z,10.31
2022-09-28T20:52:20.650Z,10.18
2022-09-28T20:55:05.408Z,9.98
2022-09-28T20:57:50.153Z,9.97
2022-09-28T21:00:34.953Z,9.98
2022-09-28T21:03:19.675Z,10.00
2022-09-28T21:06:07.609Z,10.02
2022-09-28T21:08:54.821Z,10.07
2022-09-28T21:11:39.474Z,10.09
2022-09-28T21:14:24.421Z,10.16
2022-09-28T21:17:09.045Z,10.16
2022-09-28T21:19:53.828Z,9.99
2022-09-28T21:22:38.596Z,9.89
2022-09-28T21:25:23.418Z,9.89
2022-09-28T21:28:08.143Z,9.91
2022-09-28T21:30:53.067Z,9.96
2022-09-28T21:33:37.842Z,10.02
2022-09-28T21:36:22.672Z,10.02
2022-09-28T21:39:10.401Z,10.01
2022-09-28T21:41:55.628Z,10.03
2022-09-28T21:44:40.441Z,10.07
2022-09-28T21:47:25.258Z,10.10
2022-09-28T21:50:10.065Z,10.20
2022-09-28T21:52:54.959Z,10.25
2022-09-28T21:55:39.691Z,10.30
2022-09-28T21:58:24.479Z,10.29
2022-09-28T22:01:09.239Z,10.26
2022-09-28T22:03:53.846Z,10.16
2022-09-28T22:06:38.502Z,10.16
2022-09-28T22:09:23.984Z,10.14
2022-09-28T22:12:08.643Z,10.14
2022-09-28T22:14:53.352Z,10.17
2022-09-28T22:17:38.193Z,10.14
2022-09-28T22:20:22.775Z,10.15
2022-09-28T22:23:07.614Z,10.08
2022-09-28T22:25:52.335Z,9.99
2022-09-28T22:28:37.127Z,9.86
2022-09-28T22:31:22.063Z,9.84
2022-09-28T22:34:07.176Z,9.88
2022-09-28T22:36:51.888Z,9.90
2022-09-28T22:39:37.813Z,9.94
2022-09-28T22:42:22.882Z,9.97
2022-09-28T22:45:07.647Z,9.98
2022-09-28T22:47:52.376Z,9.97
2022-09-28T22:50:37.063Z,10.06
2022-09-28T22:53:21.867Z,10.10
2022-09-28T22:56:06.620Z,10.10
2022-09-28T22:58:51.477Z,10.03
2022-09-28T23:01:36.167Z,10.00
2022-09-28T23:04:20.943Z,9.99
2022-09-28T23:07:05.629Z,10.02
2022-09-28T23:09:50.380Z,9.99
2022-09-28T23:12:35.114Z,10.06
2022-09-28T23:15:19.896Z,10.09
2022-09-28T23:18:04.779Z,10.08
2022-09-28T23:20:49.421Z,10.03
2022-09-28T23:23:34.281Z,9.92
2022-09-28T23:26:19.067Z,9.87
2022-09-28T23:29:03.740Z,9.83
2022-09-28T23:31:48.454Z,9.76
2022-09-28T23:34:33.497Z,9.64
2022-09-28T23:37:18.188Z,9.56
2022-09-28T23:40:02.924Z,9.63
2022-09-28T23:42:47.692Z,9.64
2022-09-28T23:45:32.431Z,9.61
2022-09-28T23:48:17.279Z,9.61
2022-09-28T23:51:02.040Z,9.67
2022-09-28T23:53:47.053Z,9.75
2022-09-28T23:56:31.685Z,9.76
2022-09-28T23:59:16.467Z,9.78
